Time;durP1;ratioP1;P1;durP2;ratioP2;P2;SDS_P1;SDS_P2;PMS_P1;PMS_P2;Temp;Humidity;BMP_temperature;BMP_pressure;BME280_temperature;BME280_humidity;BME280_pressure;Samples;Min_cycle;Max_cycle;Signal;HPM_P1;HPM_P2
2020/12/05 00:02:22;;;;;;;3.57;2.97;;;;;;;6.34;53.10;93016.66;5072127;28;20200;-77
2020/12/05 00:04:48;;;;;;;4.90;2.37;;;;;;;6.27;52.87;93003.19;5100373;28;20268;-77
2020/12/05 00:07:15;;;;;;;3.00;2.70;;;;;;;6.24;53.24;93006.16;5106201;28;20193;-77
2020/12/05 00:09:41;;;;;;;3.20;2.90;;;;;;;6.29;53.32;93020.84;5092128;28;20207;-76
2020/12/05 00:12:09;;;;;;;3.77;2.70;;;;;;;6.25;53.46;93023.03;5096072;28;20211;-76
2020/12/05 00:14:35;;;;;;;3.23;2.77;;;;;;;6.20;54.00;93051.78;5112250;28;20599;-76
2020/12/05 00:17:02;;;;;;;4.00;3.23;;;;;;;6.14;53.75;93023.75;5109305;28;20570;-76
2020/12/05 00:19:28;;;;;;;3.13;2.80;;;;;;;6.19;53.80;93016.22;5092294;28;20200;-77
2020/12/05 00:21:55;;;;;;;3.57;2.87;;;;;;;6.14;53.88;93005.88;5092834;28;20228;-77
2020/12/05 00:24:23;;;;;;;3.17;2.80;;;;;;;6.13;53.87;92971.13;5112099;28;20207;-77
2020/12/05 00:26:49;;;;;;;5.10;3.50;;;;;;;6.06;54.52;92957.63;5111431;28;20215;-75
2020/12/05 00:29:15;;;;;;;3.10;2.60;;;;;;;5.99;54.22;92959.47;5111315;28;20586;-76
2020/12/05 00:31:41;;;;;;;2.53;2.33;;;;;;;6.04;53.93;92977.50;5096566;28;20227;-76
2020/12/05 00:34:07;;;;;;;4.13;2.40;;;;;;;6.10;53.76;92964.66;5091981;28;20260;-75
2020/12/05 00:36:33;;;;;;;2.90;2.50;;;;;;;6.15;53.47;92962.25;5104507;28;20219;-76
2020/12/05 00:38:59;;;;;;;5.30;2.40;;;;;;;6.22;53.70;92970.59;5076232;28;20192;-76
2020/12/05 00:41:26;;;;;;;2.57;2.27;;;;;;;6.26;53.52;92960.75;5091942;28;20200;-78
2020/12/05 00:43:52;;;;;;;2.50;2.30;;;;;;;6.30;53.60;92971.31;5091229;28;20192;-77
2020/12/05 00:46:18;;;;;;;2.67;2.30;;;;;;;6.34;53.52;92975.78;5111171;28;20227;-77
2020/12/05 00:48:44;;;;;;;2.60;2.40;;;;;;;6.37;53.74;92967.66;5111816;28;20195;-77
2020/12/05 00:51:11;;;;;;;2.60;2.40;;;;;;;6.45;53.70;92972.50;5097239;28;20192;-77
2020/12/05 00:53:37;;;;;;;4.20;2.70;;;;;;;6.41;53.50;92973.91;5091398;28;20717;-77
2020/12/05 00:56:03;;;;;;;3.03;2.67;;;;;;;6.31;54.28;92967.78;5106630;28;20280;-77
2020/12/05 00:58:34;;;;;;;4.20;3.00;;;;;;;6.20;54.20;92964.16;5108194;28;20193;-77
2020/12/05 01:01:00;;;;;;;2.47;2.27;;;;;;;6.19;54.22;92963.34;5094614;28;20195;-77
2020/12/05 01:03:26;;;;;;;2.50;2.20;;;;;;;6.23;54.14;92958.63;5111647;28;20203;-77
2020/12/05 01:05:52;;;;;;;2.57;2.30;;;;;;;6.23;54.39;92953.50;5091327;28;20716;-76
2020/12/05 01:08:18;;;;;;;3.53;2.20;;;;;;;6.24;54.54;92952.50;5091287;28;20208;-77
2020/12/05 01:10:44;;;;;;;2.83;2.17;;;;;;;6.32;54.25;92951.44;5108399;28;20212;-76
2020/12/05 01:13:09;;;;;;;3.63;2.27;;;;;;;6.34;54.11;92952.00;5102990;28;20220;-77
2020/12/05 01:15:36;;;;;;;2.30;2.10;;;;;;;6.32;54.37;92959.91;5090943;28;20622;-77
2020/12/05 01:18:02;;;;;;;2.20;2.00;;;;;;;6.31;54.39;92973.66;5111215;28;20199;-76
2020/12/05 01:20:28;;;;;;;2.67;2.30;;;;;;;6.27;54.36;92972.53;5111782;28;20206;-76
2020/12/05 01:22:55;;;;;;;2.90;2.10;;;;;;;6.33;54.23;92970.88;5092513;28;20196;-75
2020/12/05 01:25:21;;;;;;;2.50;2.30;;;;;;;6.39;54.02;92967.47;5090924;28;20220;-77
2020/12/05 01:27:47;;;;;;;2.40;2.17;;;;;;;6.37;54.12;92972.78;5108574;28;20640;-76
2020/12/05 01:30:12;;;;;;;2.30;2.10;;;;;;;6.42;54.15;92980.59;5111869;28;20339;-75
2020/12/05 01:32:39;;;;;;;2.20;2.00;;;;;;;6.49;54.37;92975.41;5095936;28;20226;-75
2020/12/05 01:35:06;;;;;;;2.70;2.50;;;;;;;6.54;53.95;92988.34;5101529;28;20211;-77
2020/12/05 01:37:32;;;;;;;2.40;2.20;;;;;;;6.57;53.93;92991.22;5111358;28;20195;-77
2020/12/05 01:39:58;;;;;;;2.60;2.40;;;;;;;6.60;54.21;92992.56;5106568;28;20286;-77
2020/12/05 01:42:24;;;;;;;5.03;2.60;;;;;;;6.59;54.13;92985.88;5111055;28;20573;-77
2020/12/05 01:44:50;;;;;;;3.10;2.40;;;;;;;6.61;53.85;93001.00;5104638;28;20227;-77
2020/12/05 01:47:16;;;;;;;3.53;2.50;;;;;;;6.58;54.13;93010.66;5091718;28;20888;-77
2020/12/05 01:49:44;;;;;;;4.60;2.77;;;;;;;6.57;54.24;93023.66;5095579;28;20195;-77
2020/12/05 01:52:10;;;;;;;3.07;2.47;;;;;;;6.57;53.88;93036.44;5110668;28;20628;-77
2020/12/05 01:54:36;;;;;;;5.07;2.30;;;;;;;6.53;54.36;93018.22;5097047;28;20561;-77
2020/12/05 01:57:06;;;;;;;2.70;2.50;;;;;;;6.54;54.26;93019.00;5121951;22;20215;-78
2020/12/05 01:59:32;;;;;;;3.90;2.27;;;;;;;6.53;54.45;93002.09;5111375;28;20804;-78
2020/12/05 02:02:01;;;;;;;2.73;2.50;;;;;;;6.51;54.34;93016.88;5112765;28;20236;-78
2020/12/05 02:04:28;;;;;;;5.27;2.67;;;;;;;6.49;54.40;93026.53;5101846;28;20200;-78
2020/12/05 02:07:17;;;;;;;3.23;2.40;;;;;;;6.45;54.88;93020.28;5089042;28;20208;-78
2020/12/05 02:09:47;;;;;;;2.90;2.63;;;;;;;6.41;54.90;93024.25;5091823;28;20200;-78
2020/12/05 02:12:24;;;;;;;2.97;2.67;;;;;;;6.36;55.10;93022.31;5091158;28;20220;-76
2020/12/05 02:14:55;;;;;;;3.20;2.90;;;;;;;6.34;54.84;93039.66;5092156;28;20200;-78
2020/12/05 02:17:23;;;;;;;3.60;2.83;;;;;;;6.30;54.90;93058.97;5082314;28;20216;-77
2020/12/05 02:19:51;;;;;;;2.60;2.40;;;;;;;6.28;54.86;93060.94;5071718;28;20197;-78
2020/12/05 02:22:21;;;;;;;2.63;2.43;;;;;;;6.26;55.17;93073.16;5072616;28;20196;-77
2020/12/05 02:24:49;;;;;;;3.17;2.43;;;;;;;6.22;55.97;93083.00;5074488;28;20196;-77
2020/12/05 02:27:16;;;;;;;2.70;2.50;;;;;;;6.18;56.08;93070.84;5089951;28;20267;-78
2020/12/05 02:29:42;;;;;;;3.17;2.77;;;;;;;6.14;55.99;93044.19;5095647;28;20207;-77
2020/12/05 02:32:08;;;;;;;4.73;2.57;;;;;;;6.07;56.20;93056.25;5080885;28;20216;-78
2020/12/05 02:34:35;;;;;;;3.73;2.70;;;;;;;6.02;56.31;93058.63;5075709;28;20582;-77
2020/12/05 02:37:04;;;;;;;4.50;3.03;;;;;;;5.96;56.36;93075.59;5088407;28;20310;-78
2020/12/05 02:39:31;;;;;;;3.47;2.60;;;;;;;5.90;56.48;93066.22;5083516;28;20200;-77
2020/12/05 02:41:58;;;;;;;3.10;2.73;;;;;;;5.80;56.59;93078.63;5095100;28;20209;-77
2020/12/05 02:44:25;;;;;;;3.30;3.00;;;;;;;5.76;56.95;93085.16;5093633;28;20204;-78
2020/12/05 02:46:54;;;;;;;3.00;2.70;;;;;;;5.76;56.85;93098.72;5094809;28;20220;-78
2020/12/05 02:49:20;;;;;;;3.07;2.77;;;;;;;5.70;57.39;93117.41;5092190;28;20196;-78
2020/12/05 02:51:46;;;;;;;3.23;2.93;;;;;;;5.61;57.31;93120.38;5080141;28;20197;-78
2020/12/05 02:54:12;;;;;;;4.97;3.60;;;;;;;5.54;57.52;93116.13;5089773;28;20707;-77
2020/12/05 02:56:38;;;;;;;3.70;3.30;;;;;;;5.48;57.68;93116.16;5073934;28;20230;-78
2020/12/05 02:59:05;;;;;;;4.80;3.90;;;;;;;5.45;57.76;93121.69;5077811;28;20192;-77
2020/12/05 03:01:31;;;;;;;5.13;4.20;;;;;;;5.35;58.30;93141.75;5094756;28;20204;-77
2020/12/05 03:03:57;;;;;;;4.97;4.00;;;;;;;5.21;58.66;93153.78;5080656;28;20231;-77
2020/12/05 03:06:23;;;;;;;6.00;4.50;;;;;;;5.01;59.57;93160.72;5077117;28;20216;-78
2020/12/05 03:08:49;;;;;;;8.23;5.73;;;;;;;4.90;59.62;93161.38;5087104;28;20279;-78
2020/12/05 03:11:15;;;;;;;8.50;7.17;;;;;;;4.84;59.65;93178.25;5094201;28;20416;-78
2020/12/05 03:13:41;;;;;;;9.53;7.90;;;;;;;4.72;60.61;93195.13;5094723;28;20220;-77
2020/12/05 03:16:08;;;;;;;11.80;9.47;;;;;;;4.52;62.19;93213.00;5094069;28;20200;-77
2020/12/05 03:18:34;;;;;;;13.20;10.27;;;;;;;4.43;62.72;93245.53;5093692;28;20646;-77
2020/12/05 03:21:00;;;;;;;12.20;10.47;;;;;;;4.33;63.27;93252.00;5094202;28;20211;-77
2020/12/05 03:23:26;;;;;;;15.07;11.80;;;;;;;4.32;63.78;93260.63;5092667;28;20614;-75
2020/12/05 03:25:56;;;;;;;14.80;12.13;;;;;;;4.33;63.68;93268.06;5094183;28;20911;-76
2020/12/05 03:28:22;;;;;;;15.03;12.60;;;;;;;4.22;64.18;93280.63;5075423;28;20205;-75
2020/12/05 03:30:48;;;;;;;14.57;12.43;;;;;;;4.22;64.01;93293.34;5075879;28;20201;-75
2020/12/05 03:33:15;;;;;;;14.90;13.10;;;;;;;4.21;64.93;93312.16;5093975;28;20227;-77
2020/12/05 03:35:41;;;;;;;15.60;12.10;;;;;;;4.14;65.55;93340.91;5088090;28;20196;-76
2020/12/05 03:38:07;;;;;;;15.30;12.70;;;;;;;4.16;65.05;93344.06;5073549;28;20220;-77
2020/12/05 03:40:32;;;;;;;16.90;13.00;;;;;;;4.07;65.98;93352.84;5081340;28;20555;-76
2020/12/05 03:42:58;;;;;;;16.33;13.10;;;;;;;3.92;67.66;93369.22;5075992;28;20205;-77
2020/12/05 03:45:24;;;;;;;18.23;13.80;;;;;;;3.88;68.21;93391.72;5089769;28;20207;-76
2020/12/05 03:47:50;;;;;;;16.73;13.67;;;;;;;3.93;68.06;93399.59;5073323;28;20220;-76
2020/12/05 03:50:17;;;;;;;15.17;13.20;;;;;;;4.00;67.89;93385.13;5089841;28;20230;-78
2020/12/05 03:52:43;;;;;;;15.77;13.17;;;;;;;4.09;67.24;93375.56;5082963;28;20244;-76
2020/12/05 03:55:09;;;;;;;17.83;13.93;;;;;;;4.07;67.82;93380.06;5073067;28;20609;-77
2020/12/05 03:57:35;;;;;;;17.13;13.30;;;;;;;4.13;67.02;93394.56;5075343;28;20224;-76
2020/12/05 04:00:00;;;;;;;17.23;13.00;;;;;;;3.96;68.98;93419.59;5073243;28;20208;-77
2020/12/05 04:02:26;;;;;;;16.83;13.83;;;;;;;3.84;69.73;93438.13;5085937;28;20907;-77
2020/12/05 04:04:52;;;;;;;16.33;13.40;;;;;;;3.89;69.23;93436.56;5093254;28;20663;-78
2020/12/05 04:07:19;;;;;;;17.10;13.47;;;;;;;3.95;69.28;93438.38;5091195;28;20220;-78
2020/12/05 04:09:45;;;;;;;15.97;13.17;;;;;;;3.98;69.45;93460.91;5092822;28;20207;-77
2020/12/05 04:12:11;;;;;;;15.90;12.67;;;;;;;3.96;69.51;93472.25;5082935;28;20225;-77
2020/12/05 04:14:37;;;;;;;15.33;13.63;;;;;;;4.01;69.21;93469.94;5083805;28;20224;-76
2020/12/05 04:17:03;;;;;;;15.20;13.57;;;;;;;4.09;69.21;93474.84;5092709;28;20219;-76
2020/12/05 04:19:28;;;;;;;14.73;13.03;;;;;;;4.12;68.70;93487.22;5083808;28;20687;-76
2020/12/05 04:21:54;;;;;;;15.93;13.57;;;;;;;4.16;68.42;93501.94;5081444;28;20706;-77
2020/12/05 04:24:21;;;;;;;15.93;13.17;;;;;;;4.19;68.31;93507.63;5092725;28;20200;-77
2020/12/05 04:26:47;;;;;;;16.70;13.87;;;;;;;4.12;69.12;93493.09;5076865;28;20710;-77
2020/12/05 04:29:13;;;;;;;18.10;14.57;;;;;;;4.14;69.62;93498.78;5072205;28;20208;-76
2020/12/05 04:31:39;;;;;;;18.50;14.13;;;;;;;4.08;70.02;93503.81;5086458;28;20207;-76
2020/12/05 04:34:05;;;;;;;18.70;14.90;;;;;;;4.07;70.38;93520.06;5081531;28;20265;-77
2020/12/05 04:36:31;;;;;;;16.57;14.23;;;;;;;4.09;70.93;93544.38;5092131;28;20223;-77
2020/12/05 04:38:57;;;;;;;17.87;14.60;;;;;;;3.91;72.43;93543.28;5090768;28;20700;-78
2020/12/05 04:41:24;;;;;;;17.80;14.47;;;;;;;3.94;72.71;93542.91;5092048;28;20199;-77
2020/12/05 04:43:50;;;;;;;16.93;14.37;;;;;;;4.01;72.38;93542.00;5087934;28;20203;-77
2020/12/05 04:46:17;;;;;;;16.30;14.37;;;;;;;4.06;72.99;93552.38;5072138;28;20682;-77
2020/12/05 04:48:44;;;;;;;17.20;14.50;;;;;;;4.05;73.05;93567.84;5089733;28;20196;-77
2020/12/05 04:51:16;;;;;;;16.93;14.40;;;;;;;4.05;73.31;93578.81;5092848;28;20695;-77
2020/12/05 04:53:46;;;;;;;20.87;15.87;;;;;;;4.13;73.57;93575.34;5079238;28;20277;-77
2020/12/05 04:56:14;;;;;;;16.93;14.60;;;;;;;4.18;73.38;93557.75;5071839;28;20258;-77
2020/12/05 04:58:46;;;;;;;17.50;14.77;;;;;;;4.17;73.33;93563.81;5087529;28;20213;-78
2020/12/05 05:01:16;;;;;;;18.50;15.23;;;;;;;4.26;72.69;93560.13;5088440;28;20192;-77
2020/12/05 05:03:43;;;;;;;18.50;15.33;;;;;;;4.24;73.21;93564.63;5072256;28;20199;-78
2020/12/05 05:06:18;;;;;;;16.70;14.87;;;;;;;4.29;72.97;93580.16;5090451;28;20196;-77
2020/12/05 05:08:44;;;;;;;17.50;15.07;;;;;;;4.26;73.50;93584.81;5078377;28;20207;-77
2020/12/05 05:11:12;;;;;;;18.43;15.97;;;;;;;4.32;72.70;93605.25;5092836;28;20559;-77
2020/12/05 05:13:54;;;;;;;18.17;14.90;;;;;;;4.29;73.80;93610.72;5090239;28;20265;-78
2020/12/05 05:16:21;;;;;;;17.57;14.10;;;;;;;4.31;73.55;93618.16;5084661;28;20212;-76
2020/12/05 05:18:47;;;;;;;16.97;15.17;;;;;;;4.44;72.58;93638.63;5092145;28;20207;-77
2020/12/05 05:21:34;;;;;;;18.37;15.30;;;;;;;4.41;73.45;93654.31;5091616;28;20196;-78
2020/12/05 05:24:01;;;;;;;17.00;14.60;;;;;;;4.44;73.33;93664.88;5091596;28;20662;-77
2020/12/05 05:26:29;;;;;;;17.47;15.13;;;;;;;4.51;72.24;93658.06;5091649;28;20220;-78
2020/12/05 05:28:56;;;;;;;18.37;15.23;;;;;;;4.45;73.36;93674.09;5090412;28;20204;-78
2020/12/05 05:31:26;;;;;;;17.50;14.93;;;;;;;4.54;72.54;93671.44;5091569;28;20219;-76
2020/12/05 05:33:54;;;;;;;19.37;15.23;;;;;;;4.60;72.24;93671.47;5091694;28;20269;-78
2020/12/05 05:36:22;;;;;;;18.43;14.87;;;;;;;4.63;72.36;93662.66;5091779;28;20306;-76
2020/12/05 05:38:59;;;;;;;18.60;14.97;;;;;;;4.69;71.98;93672.88;5085893;28;20204;-78
2020/12/05 05:41:26;;;;;;;17.60;14.27;;;;;;;4.70;71.94;93669.38;5092290;28;20280;-78
2020/12/05 05:43:58;;;;;;;17.30;15.33;;;;;;;4.68;72.51;93683.25;5091222;28;20831;-78
2020/12/05 05:46:31;;;;;;;18.47;14.67;;;;;;;4.75;71.57;93686.66;5086618;28;20221;-77
2020/12/05 05:48:59;;;;;;;18.53;15.70;;;;;;;4.74;71.78;93685.06;5090026;28;20572;-77
2020/12/05 05:51:42;;;;;;;19.77;15.80;;;;;;;4.79;71.89;93695.50;5087924;28;20199;-77
2020/12/05 05:54:21;;;;;;;18.80;15.40;;;;;;;4.81;71.71;93703.75;5072078;28;20714;-76
2020/12/05 05:56:58;;;;;;;17.43;14.97;;;;;;;4.77;72.27;93712.75;5078045;28;20216;-76
2020/12/05 05:59:27;;;;;;;16.57;14.77;;;;;;;4.81;71.96;93736.91;5094409;28;20204;-77
2020/12/05 06:01:54;;;;;;;17.97;14.97;;;;;;;4.80;72.08;93742.97;5078822;28;20234;-77
2020/12/05 06:04:26;;;;;;;16.33;14.43;;;;;;;4.85;71.76;93743.16;5085248;28;20192;-77
2020/12/05 06:06:53;;;;;;;18.30;14.77;;;;;;;4.90;71.37;93750.28;5095876;28;20227;-76
2020/12/05 06:09:25;;;;;;;16.90;15.13;;;;;;;4.94;71.41;93769.31;5087833;28;20197;-77
2020/12/05 06:11:57;;;;;;;17.73;15.33;;;;;;;4.95;71.60;93776.78;5081125;28;20581;-77
2020/12/05 06:14:25;;;;;;;19.93;15.90;;;;;;;4.99;71.44;93788.19;5083846;28;20200;-78
2020/12/05 06:16:52;;;;;;;17.87;15.10;;;;;;;4.97;71.66;93797.78;5082774;28;20212;-77
2020/12/05 06:19:19;;;;;;;18.20;15.23;;;;;;;5.04;70.91;93785.84;5082709;28;20192;-77
2020/12/05 06:21:49;;;;;;;18.90;15.47;;;;;;;5.01;71.56;93765.81;5095946;28;20208;-77
2020/12/05 06:24:16;;;;;;;18.23;14.90;;;;;;;5.02;70.98;93761.50;5095620;28;20219;-79
2020/12/05 06:26:45;;;;;;;18.37;15.27;;;;;;;5.05;71.19;93763.69;5096315;28;20587;-78
2020/12/05 06:29:12;;;;;;;17.07;14.70;;;;;;;5.08;70.53;93781.97;5095334;28;20215;-77
2020/12/05 06:31:40;;;;;;;17.23;15.13;;;;;;;5.11;70.57;93763.75;5096041;28;20881;-77
2020/12/05 06:34:08;;;;;;;17.57;15.73;;;;;;;5.11;70.85;93743.34;5082700;28;20221;-77
2020/12/05 06:36:43;;;;;;;17.63;15.43;;;;;;;5.14;72.84;93706.47;5075064;28;20220;-79
2020/12/05 06:39:11;;;;;;;12.53;9.30;;;;;;;5.73;93.21;93713.56;5085156;28;20199;-76
2020/12/05 06:41:39;;;;;;;15.33;12.07;;;;;;;6.08;85.84;93750.78;5093390;28;20223;-75
2020/12/05 06:44:10;;;;;;;15.50;13.90;;;;;;;6.37;77.66;93762.41;5092866;28;20203;-76
2020/12/05 06:46:54;;;;;;;131.17;98.23;;;;;;;6.11;70.28;93768.28;5075822;28;20213;-77
2020/12/05 06:49:53;;;;;;;33.77;28.03;;;;;;;5.95;72.05;93796.72;5094805;28;20566;-78
2020/12/05 06:52:38;;;;;;;23.30;19.20;;;;;;;5.86;70.18;93836.94;5100522;28;20227;-77
2020/12/05 06:55:10;;;;;;;19.33;17.30;;;;;;;5.75;70.10;93855.34;5078951;28;20585;-77
2020/12/05 06:57:38;;;;;;;17.93;15.73;;;;;;;5.70;70.18;93862.00;5075334;28;20228;-77
2020/12/05 07:00:21;;;;;;;17.53;15.63;;;;;;;5.66;69.74;93868.44;5090173;28;20203;-77
2020/12/05 07:02:59;;;;;;;17.60;15.80;;;;;;;5.60;70.12;93869.97;5074953;28;20220;-77
2020/12/05 07:05:32;;;;;;;18.57;15.30;;;;;;;5.55;70.30;93880.00;5084087;28;20204;-77
2020/12/05 07:07:59;;;;;;;17.67;15.80;;;;;;;5.49;70.16;93884.06;5092259;28;20220;-77
2020/12/05 07:10:52;;;;;;;19.57;15.23;;;;;;;5.49;70.40;93875.63;5085324;28;20211;-77
2020/12/05 07:13:21;;;;;;;16.67;14.87;;;;;;;5.44;70.17;93871.06;5078896;28;20219;-76
2020/12/05 07:15:47;;;;;;;20.57;15.53;;;;;;;5.33;72.18;93860.59;5092224;28;20218;-78
2020/12/05 07:18:27;;;;;;;18.27;15.77;;;;;;;5.29;72.01;93857.63;5086495;28;20212;-77
2020/12/05 07:20:56;;;;;;;17.23;15.23;;;;;;;5.14;73.39;93864.59;5073680;28;20244;-77
2020/12/05 07:23:26;;;;;;;18.73;15.87;;;;;;;5.09;73.02;93872.81;5081088;28;20223;-78
2020/12/05 07:25:52;;;;;;;33.60;26.43;;;;;;;5.15;72.32;93897.59;5072839;28;20203;-76
2020/12/05 07:28:18;;;;;;;26.97;22.70;;;;;;;5.17;72.49;93897.41;5084338;28;20208;-76
2020/12/05 07:30:44;;;;;;;23.73;18.20;;;;;;;5.14;72.77;93905.41;5074725;28;20239;-78
2020/12/05 07:33:13;;;;;;;18.33;16.33;;;;;;;5.15;72.22;93932.50;5090379;28;20250;-76
2020/12/05 07:35:40;;;;;;;19.87;16.50;;;;;;;5.19;71.95;93942.16;5094536;28;20208;-77
2020/12/05 07:38:15;;;;;;;19.37;15.77;;;;;;;5.19;72.18;93947.25;5081474;28;20220;-76
2020/12/05 07:40:41;;;;;;;18.63;16.40;;;;;;;5.21;71.51;93937.63;5092734;28;20202;-76
2020/12/05 07:43:20;;;;;;;82.83;59.23;;;;;;;5.13;73.14;93935.22;5076081;28;20201;-77
2020/12/05 07:45:48;;;;;;;40.07;30.37;;;;;;;5.16;72.60;93947.63;5090584;28;20231;-77
2020/12/05 07:48:16;;;;;;;24.63;20.50;;;;;;;5.19;72.30;93944.72;5088421;28;20223;-77
2020/12/05 07:50:44;;;;;;;24.10;20.17;;;;;;;5.23;71.90;93952.75;5095786;28;20267;-77
2020/12/05 07:53:27;;;;;;;25.93;21.70;;;;;;;5.16;72.19;93965.47;5095802;28;20511;-77
2020/12/05 07:55:54;;;;;;;24.67;19.80;;;;;;;5.06;73.00;93964.19;5082050;28;20569;-78
2020/12/05 07:58:20;;;;;;;20.10;17.53;;;;;;;5.05;72.93;93977.91;5127349;22;20218;-76
2020/12/05 08:00:47;;;;;;;19.00;15.77;;;;;;;5.08;73.10;93975.78;5131806;27;20202;-77
2020/12/05 08:09:18;;;;;;;16.97;15.17;;;;;;;5.17;72.95;93973.94;5062945;28;20223;-76
2020/12/05 08:11:50;;;;;;;18.63;16.00;;;;;;;5.21;72.51;93987.88;5071705;28;20204;-76
2020/12/05 08:14:17;;;;;;;19.67;16.13;;;;;;;5.22;72.37;93979.25;5069979;28;20323;-75
2020/12/05 08:16:44;;;;;;;18.03;16.03;;;;;;;5.17;72.48;93972.16;5052027;28;20209;-76
2020/12/05 08:19:10;;;;;;;19.27;16.53;;;;;;;5.18;72.28;93972.94;5070234;28;20201;-76
2020/12/05 08:21:36;;;;;;;18.97;16.37;;;;;;;5.20;73.58;93994.72;5071583;28;20196;-75
2020/12/05 08:24:06;;;;;;;18.83;15.77;;;;;;;5.25;72.85;93990.84;5070382;28;20670;-76
2020/12/05 08:26:34;;;;;;;19.57;16.03;;;;;;;5.26;75.52;94000.09;5071980;28;20731;-79
2020/12/05 08:29:01;;;;;;;41.03;32.30;;;;;;;5.29;73.90;94012.47;5081796;22;20559;-76
2020/12/05 08:31:27;;;;;;;27.43;22.90;;;;;;;5.34;72.69;94012.72;5071125;28;20201;-76
2020/12/05 08:33:53;;;;;;;19.70;16.33;;;;;;;5.38;72.10;94019.06;5071264;28;20213;-76
2020/12/05 08:36:32;;;;;;;17.73;15.17;;;;;;;5.41;71.52;94003.34;5068474;28;20280;-77
2020/12/05 08:39:01;;;;;;;19.00;15.27;;;;;;;5.45;71.80;94007.91;5064808;28;20235;-77
2020/12/05 08:41:27;;;;;;;142.87;100.30;;;;;;;5.34;72.64;94023.72;5068517;28;20203;-77
2020/12/05 08:43:54;;;;;;;29.93;24.60;;;;;;;5.36;72.38;94041.41;5070947;28;20662;-79
2020/12/05 08:46:22;;;;;;;29.73;24.57;;;;;;;5.32;72.25;94058.84;5071512;28;20275;-76
2020/12/05 08:48:50;;;;;;;22.50;18.70;;;;;;;5.36;72.24;94080.47;5070905;28;20204;-76
2020/12/05 08:51:16;;;;;;;17.87;15.17;;;;;;;5.40;71.90;94091.09;5070544;28;20280;-76
2020/12/05 08:53:45;;;;;;;17.57;14.87;;;;;;;5.41;72.02;94100.31;5070845;28;20617;-76
2020/12/05 08:56:19;;;;;;;22.57;15.90;;;;;;;5.32;75.31;94092.00;5058968;28;20660;-77
2020/12/05 08:58:46;;;;;;;20.53;15.20;;;;;;;5.26;74.60;94081.72;5054413;28;20221;-75
2020/12/05 09:01:14;;;;;;;18.53;15.27;;;;;;;5.40;72.50;94085.97;5068460;28;20197;-78
2020/12/05 09:03:41;;;;;;;18.70;13.97;;;;;;;5.47;72.93;94086.84;5064002;28;20212;-79
2020/12/05 09:06:08;;;;;;;16.83;14.03;;;;;;;5.55;71.92;94092.63;5070117;28;20193;-79
2020/12/05 09:08:34;;;;;;;14.93;13.37;;;;;;;5.48;72.55;94094.31;5072636;28;20204;-79
2020/12/05 09:11:01;;;;;;;16.90;13.80;;;;;;;5.49;72.29;94106.13;5072796;28;20212;-78
2020/12/05 09:13:27;;;;;;;13.37;11.97;;;;;;;5.53;72.03;94094.56;5064169;28;20217;-78
2020/12/05 09:15:59;;;;;;;14.77;10.07;;;;;;;5.78;88.93;94082.22;5070923;28;20638;-73
2020/12/05 09:18:26;;;;;;;13.50;11.53;;;;;;;6.14;78.01;94092.38;5071063;28;20254;-75
2020/12/05 09:20:52;;;;;;;13.97;11.97;;;;;;;6.06;72.00;94086.59;5066361;28;20221;-77
2020/12/05 09:23:28;;;;;;;14.13;12.63;;;;;;;6.08;71.25;94079.53;5060367;28;20194;-75
2020/12/05 09:26:03;;;;;;;13.57;12.13;;;;;;;6.04;71.32;94078.31;5050934;28;20196;-75
2020/12/05 09:28:29;;;;;;;13.90;10.67;;;;;;;5.99;70.91;94072.97;5055051;28;20685;-76
2020/12/05 09:30:55;;;;;;;12.33;11.03;;;;;;;5.92;71.10;94070.38;5068142;28;20224;-76
2020/12/05 09:33:22;;;;;;;11.23;10.13;;;;;;;5.88;71.36;94080.19;5070352;28;20221;-76
2020/12/05 09:35:49;;;;;;;11.20;10.00;;;;;;;5.94;72.51;94085.53;5074592;28;20226;-76
2020/12/05 09:38:16;;;;;;;12.03;10.17;;;;;;;5.97;70.79;94077.47;5074237;28;20196;-76
2020/12/05 09:40:42;;;;;;;12.33;11.03;;;;;;;5.99;70.81;94062.75;5075557;28;20270;-76
2020/12/05 09:43:08;;;;;;;12.57;11.27;;;;;;;5.97;71.18;94062.16;5074701;28;20189;-76
2020/12/05 09:45:34;;;;;;;11.67;10.47;;;;;;;5.97;72.07;94057.81;5074228;28;20203;-77
2020/12/05 09:48:00;;;;;;;12.53;11.07;;;;;;;6.03;70.52;94064.75;5074243;28;20197;-76
2020/12/05 09:50:26;;;;;;;12.30;11.00;;;;;;;5.93;70.99;94073.72;5074545;28;20227;-76
2020/12/05 09:52:53;;;;;;;11.40;10.20;;;;;;;5.81;71.41;94084.41;5073346;28;20578;-76
2020/12/05 09:55:19;;;;;;;11.27;10.17;;;;;;;5.80;71.32;94080.25;5074226;28;20212;-75
2020/12/05 09:57:45;;;;;;;10.33;9.30;;;;;;;5.79;71.68;94086.34;5071055;28;20201;-75
2020/12/05 10:00:13;;;;;;;10.87;9.77;;;;;;;5.79;71.64;94085.56;5071025;28;20605;-77
2020/12/05 10:02:40;;;;;;;10.70;9.60;;;;;;;5.85;71.19;94085.63;5054617;28;20205;-76
2020/12/05 10:05:07;;;;;;;10.70;9.60;;;;;;;5.87;71.05;94101.53;5063589;28;20197;-76
2020/12/05 10:07:34;;;;;;;13.17;10.47;;;;;;;5.89;71.14;94099.63;5073965;28;20196;-75
2020/12/05 10:10:01;;;;;;;13.47;10.67;;;;;;;5.91;70.98;94113.97;5074576;28;20221;-76
2020/12/05 10:12:27;;;;;;;68.13;52.07;;;;;;;5.93;70.89;94112.03;5071160;28;20199;-76
2020/12/05 10:14:53;;;;;;;23.37;18.30;;;;;;;5.94;70.76;94131.50;5073013;28;20555;-75
2020/12/05 10:17:19;;;;;;;16.27;14.17;;;;;;;5.94;70.49;94121.28;5069556;28;20246;-76
2020/12/05 10:19:45;;;;;;;9.60;8.70;;;;;;;5.91;70.85;94116.53;5054546;28;20233;-77
2020/12/05 10:22:11;;;;;;;9.47;8.43;;;;;;;5.76;71.52;94119.13;5070980;28;20197;-76
2020/12/05 10:24:37;;;;;;;9.83;8.23;;;;;;;5.82;71.39;94120.94;5064880;28;20575;-76
2020/12/05 10:27:04;;;;;;;9.07;8.17;;;;;;;5.86;70.97;94119.59;5074231;28;20238;-76
2020/12/05 10:29:30;;;;;;;9.20;8.30;;;;;;;5.75;71.43;94113.25;5065127;28;20240;-75
2020/12/05 10:31:56;;;;;;;9.20;8.30;;;;;;;5.60;72.42;94115.03;5074508;28;20192;-75
2020/12/05 10:34:22;;;;;;;9.57;8.67;;;;;;;5.59;72.85;94110.13;5072340;28;20216;-75
2020/12/05 10:36:49;;;;;;;9.60;8.70;;;;;;;5.59;72.67;94110.13;5074041;28;20284;-76
2020/12/05 10:39:15;;;;;;;9.60;8.70;;;;;;;5.64;73.02;94106.06;5068079;28;20217;-74
2020/12/05 10:41:42;;;;;;;9.03;8.13;;;;;;;5.70;72.50;94110.44;5073913;28;20244;-76
2020/12/05 10:44:11;;;;;;;9.33;8.40;;;;;;;5.78;72.37;94105.19;5059043;28;20201;-75
2020/12/05 10:46:39;;;;;;;8.67;7.77;;;;;;;5.81;72.04;94098.94;5061232;28;20664;-76
2020/12/05 10:49:05;;;;;;;9.00;8.10;;;;;;;5.85;71.99;94092.50;5073307;28;20217;-76
2020/12/05 10:51:31;;;;;;;9.90;8.10;;;;;;;5.84;71.69;94104.47;5073729;28;20202;-75
2020/12/05 10:54:25;;;;;;;9.60;8.60;;;;;;;5.80;72.00;94110.91;5060518;28;20699;-75
2020/12/05 10:57:15;;;;;;;15.70;12.73;;;;;;;5.51;73.82;94108.50;5053304;28;20566;-77
2020/12/05 11:00:13;;;;;;;15.17;13.03;;;;;;;5.41;75.08;94105.44;5068189;28;20268;-77
2020/12/05 11:05:28;;;;;;;16.87;14.07;;;;;;;5.39;75.48;94099.72;5061049;28;20284;-76
2020/12/05 11:08:29;;;;;;;16.43;14.73;;;;;;;5.33;76.00;94105.56;5056166;28;20201;-77
2020/12/05 11:11:27;;;;;;;17.30;14.83;;;;;;;5.42;76.06;94101.91;5049570;28;20245;-78
2020/12/05 11:14:05;;;;;;;16.50;13.70;;;;;;;5.33;76.39;94114.00;5068368;28;20233;-75
2020/12/05 11:19:28;;;;;;;15.13;13.43;;;;;;;5.14;77.26;94125.56;5055573;28;20664;-77
2020/12/05 11:21:57;;;;;;;15.93;13.27;;;;;;;5.07;78.23;94117.03;5072690;28;20200;-76
2020/12/05 11:24:34;;;;;;;17.40;14.57;;;;;;;5.07;78.17;94124.69;5074945;28;20476;-76
2020/12/05 11:27:01;;;;;;;16.67;14.33;;;;;;;5.03;78.33;94113.25;5076189;28;20683;-75
2020/12/05 11:29:31;;;;;;;16.93;14.87;;;;;;;4.93;79.46;94115.31;5076843;28;20319;-77
2020/12/05 11:35:21;;;;;;;18.83;15.97;;;;;;;4.99;80.07;94118.91;5015206;28;20199;-77
2020/12/05 11:37:50;;;;;;;19.37;16.80;;;;;;;5.02;79.88;94110.88;5069145;28;20197;-77
2020/12/05 11:40:18;;;;;;;19.80;15.80;;;;;;;4.94;80.79;94113.56;5078006;28;20289;-79
2020/12/05 11:42:44;;;;;;;19.37;16.77;;;;;;;4.95;81.54;94110.03;5078087;28;20220;-78
2020/12/05 11:45:10;;;;;;;19.33;16.40;;;;;;;5.01;81.46;94101.66;5058047;28;20208;-79
2020/12/05 11:48:04;;;;;;;19.90;16.53;;;;;;;4.99;82.51;94099.31;5057333;28;20201;-79
2020/12/05 11:50:41;;;;;;;33.53;27.07;;;;;;;5.10;82.58;94109.03;5065131;28;20629;-79
2020/12/05 11:53:08;;;;;;;19.43;16.27;;;;;;;5.02;82.77;94091.28;5052446;28;20228;-75
2020/12/05 11:55:34;;;;;;;19.43;15.07;;;;;;;4.84;85.30;94080.66;5061941;28;20201;-77